»·PEaware :: AWE1942 KCLT-KLGA

AWE1942 :: KCLT-KLGA

FLIGHT INFORMATION

Flight Status: Arrived
Operator:
US Airways
More flights by this operator :: More flights under this callsign
Pilot: Kevin B. (675)
Aircraft: AIRBUS A320
(A320)
More flights by this aircraft type
Origin: KCLT Charlotte/Douglas Intl
United States
Destination: KLGA La Guardia
United States
More flights between these airports :: More routes between these airports
Route: BARMY4 RDU J55 HPW J191 PXT KORRY4
File this flight plan on PilotEdge
Remarks: Retro Callsign "Cactus"
Altitude:
(Current/Filed)
33,000ft
Speed:
(Current/Filed)
450kts
Departed: 10-Jul-19 05:31 PM
Arrived: 10-Jul-19 06:53 PM
Distance/Time
Traveled:
473nm/1:22
Distance/Time
To Go:
Arrived

Flight Plot

Page will automatically refresh every two minutes.

Flight plan parsing failed; only flown route is shown


Map Options




Map Legend


Flown Route
Filed Route
Departure Airport
Arrival Airport
Navaid (VOR, NDB)
Fix

Horizontal Profiles

Position Reports

Time Latitude Longitude Heading Altitude Ground
Speed
10-Jul-19 16:54 35.218743 -80.942861 71 726ft 0kts
10-Jul-19 16:55 35.218743 -80.942861 71 726ft 0kts
10-Jul-19 16:56 35.218743 -80.942861 71 726ft 0kts
10-Jul-19 16:57 35.218743 -80.942861 71 726ft 0kts
10-Jul-19 16:58 35.218743 -80.942861 71 726ft 0kts
10-Jul-19 16:59 35.218743 -80.942861 71 726ft 0kts
10-Jul-19 17:00 35.218743 -80.942861 71 726ft 0kts
10-Jul-19 17:01 35.218743 -80.942861 71 726ft 0kts
10-Jul-19 17:02 35.218743 -80.942860 71 726ft 0kts
10-Jul-19 17:03 35.218743 -80.942861 71 726ft 0kts
10-Jul-19 17:04 35.218743 -80.942861 71 726ft 0kts
10-Jul-19 17:05 35.218743 -80.942861 71 726ft 0kts
10-Jul-19 17:06 35.218743 -80.942861 71 726ft 0kts
10-Jul-19 17:07 35.218743 -80.942861 71 726ft 0kts
10-Jul-19 17:08 35.218743 -80.942861 71 726ft 0kts
10-Jul-19 17:09 35.218743 -80.942861 71 726ft 0kts
10-Jul-19 17:10 35.218743 -80.942861 71 726ft 0kts
10-Jul-19 17:11 35.218743 -80.942861 71 726ft 0kts
10-Jul-19 17:12 35.218743 -80.942861 71 726ft 0kts
10-Jul-19 17:13 35.218743 -80.942861 71 726ft 0kts
10-Jul-19 17:14 35.218743 -80.942861 71 726ft 0kts
10-Jul-19 17:15 35.218743 -80.942861 71 726ft 0kts
10-Jul-19 17:16 35.218743 -80.942861 71 726ft 0kts
10-Jul-19 17:17 35.218727 -80.942920 71 726ft 2kts
10-Jul-19 17:18 35.218637 -80.943626 119 724ft 2kts
10-Jul-19 17:19 35.218952 -80.943842 177 725ft 0kts
10-Jul-19 17:20 35.218951 -80.943842 177 725ft 0kts
10-Jul-19 17:21 35.218951 -80.943842 177 725ft 0kts
10-Jul-19 17:22 35.217353 -80.943701 175 722ft 14kts
10-Jul-19 17:23 35.217064 -80.940857 48 727ft 10kts
10-Jul-19 17:24 35.219547 -80.937443 48 736ft 12kts
10-Jul-19 17:25 35.222530 -80.937262 356 740ft 0kts
10-Jul-19 17:26 35.223591 -80.937342 356 739ft 10kts
10-Jul-19 17:27 35.225033 -80.936287 130 741ft 5kts
10-Jul-19 17:28 35.224565 -80.936105 176 741ft 0kts
10-Jul-19 17:29 35.224215 -80.936078 176 741ft 21kts
10-Jul-19 17:30 35.186810 -80.932628 174 1623ft 187kts
10-Jul-19 17:31 35.133382 -80.920152 146 3688ft 224kts
10-Jul-19 17:32 35.131225 -80.842366 69 5472ft 279kts
10-Jul-19 17:33 35.160270 -80.752381 69 8167ft 293kts
10-Jul-19 17:34 35.190667 -80.657708 68 10585ft 313kts
10-Jul-19 17:35 35.225751 -80.548293 68 11574ft 373kts
10-Jul-19 17:36 35.258225 -80.419787 80 12371ft 416kts
10-Jul-19 17:37 35.276820 -80.277656 81 13938ft 427kts
10-Jul-19 17:38 35.295682 -80.132862 80 15457ft 435kts
10-Jul-19 17:39 35.331874 -79.990023 69 16811ft 443kts
10-Jul-19 17:40 35.373646 -79.846789 69 18082ft 450kts
10-Jul-19 17:41 35.415844 -79.701657 69 19270ft 455kts
10-Jul-19 17:42 35.458523 -79.554096 69 20311ft 462kts
10-Jul-19 17:43 35.501636 -79.404128 69 21276ft 468kts
10-Jul-19 17:44 35.545034 -79.252413 69 22216ft 472kts
10-Jul-19 17:45 35.592950 -79.101592 56 22997ft 475kts
10-Jul-19 17:46 35.685450 -78.986664 39 23688ft 477kts
10-Jul-19 17:47 35.785290 -78.878334 39 24375ft 480kts
10-Jul-19 17:48 35.887223 -78.770618 34 25056ft 479kts
10-Jul-19 17:49 35.995650 -78.675513 33 25856ft 476kts
10-Jul-19 17:50 36.103693 -78.580521 36 26570ft 476kts
10-Jul-19 17:51 36.210914 -78.485939 36 27432ft 471kts
10-Jul-19 17:52 36.317098 -78.391956 36 28269ft 468kts
10-Jul-19 17:53 36.421423 -78.299299 36 29130ft 463kts
10-Jul-19 17:54 36.525150 -78.206905 36 30029ft 457kts
10-Jul-19 17:56 36.628116 -78.114830 36 30780ft 454kts
10-Jul-19 17:57 36.730243 -78.023188 36 31483ft 452kts
10-Jul-19 17:58 36.831982 -77.931583 36 32120ft 450kts
10-Jul-19 17:59 36.914886 -77.815813 53 32630ft 449kts
10-Jul-19 18:00 36.989363 -77.690871 52 33082ft 450kts
10-Jul-19 18:01 37.064791 -77.564016 51 33087ft 460kts
10-Jul-19 18:02 37.140856 -77.435566 52 33086ft 465kts
10-Jul-19 18:03 37.217900 -77.304949 52 33092ft 467kts
10-Jul-19 18:04 37.295238 -77.173377 52 33090ft 466kts
10-Jul-19 18:05 37.392485 -77.069167 29 33091ft 464kts
10-Jul-19 18:06 37.503411 -76.987349 29 33087ft 462kts
10-Jul-19 18:07 37.614004 -76.905445 29 33088ft 460kts
10-Jul-19 18:08 37.723691 -76.823946 28 33074ft 457kts
10-Jul-19 18:09 37.832858 -76.742542 28 33068ft 456kts
10-Jul-19 18:10 37.942003 -76.660869 28 33063ft 455kts
10-Jul-19 18:11 38.050784 -76.579200 28 33072ft 456kts
10-Jul-19 18:11 38.140136 -76.507780 33 33080ft 457kts
10-Jul-19 18:13 38.262066 -76.401124 32 33090ft 457kts
10-Jul-19 18:14 38.366917 -76.309892 32 33092ft 457kts
10-Jul-19 18:14 38.454198 -76.233740 33 33092ft 457kts
10-Jul-19 18:16 38.576294 -76.126833 32 33097ft 457kts
10-Jul-19 18:17 38.680881 -76.034901 32 33117ft 457kts
10-Jul-19 18:17 38.767039 -75.955010 34 33126ft 458kts
10-Jul-19 18:18 38.869848 -75.858604 34 33122ft 458kts
10-Jul-19 18:20 38.989683 -75.745712 33 33089ft 459kts
10-Jul-19 18:20 39.075684 -75.664300 33 33058ft 463kts
10-Jul-19 18:21 39.179256 -75.565895 33 31378ft 470kts
10-Jul-19 18:23 39.305816 -75.450316 31 27246ft 487kts
10-Jul-19 18:23 39.398037 -75.368307 32 25157ft 477kts
10-Jul-19 18:24 39.505217 -75.272689 32 22850ft 463kts
10-Jul-19 18:25 39.608210 -75.176378 34 20522ft 449kts
10-Jul-19 18:26 39.708609 -75.084601 32 18202ft 435kts
10-Jul-19 18:27 39.807551 -74.999384 32 15917ft 421kts
10-Jul-19 18:28 39.902745 -74.915169 33 13659ft 407kts
10-Jul-19 18:29 39.981600 -74.812535 46 11566ft 390kts
10-Jul-19 18:30 40.050147 -74.714189 46 10800ft 344kts
10-Jul-19 18:31 40.110474 -74.627432 46 10094ft 307kts
10-Jul-19 18:32 40.167139 -74.545862 46 9745ft 298kts
10-Jul-19 18:33 40.224155 -74.467591 42 8306ft 295kts
10-Jul-19 18:34 40.283315 -74.392886 42 8040ft 295kts
10-Jul-19 18:35 40.342228 -74.318340 43 8038ft 293kts
10-Jul-19 18:36 40.400351 -74.244534 43 7596ft 287kts
10-Jul-19 18:37 40.457548 -74.171783 43 7027ft 286kts
10-Jul-19 18:38 40.514572 -74.099187 40 7022ft 286kts
10-Jul-19 18:39 40.581167 -74.043963 13 5860ft 282kts
10-Jul-19 18:40 40.658499 -74.043758 356 4529ft 276kts
10-Jul-19 18:41 40.735104 -74.046080 9 4025ft 270kts
10-Jul-19 18:42 40.797081 -74.008756 26 4004ft 222kts
10-Jul-19 18:43 40.848181 -73.974286 29 3062ft 201kts
10-Jul-19 18:44 40.895786 -73.934947 30 3013ft 200kts
10-Jul-19 18:45 40.928839 -73.878491 67 3015ft 200kts
10-Jul-19 18:46 40.950787 -73.810732 66 3026ft 199kts
10-Jul-19 18:47 40.945366 -73.750028 170 3040ft 189kts
10-Jul-19 18:48 40.898915 -73.776978 211 2651ft 185kts
10-Jul-19 18:49 40.856927 -73.811724 211 1647ft 163kts
10-Jul-19 18:50 40.821989 -73.840517 210 876ft 146kts
10-Jul-19 18:51 40.787797 -73.868742 211 89ft 144kts
10-Jul-19 18:52 40.773521 -73.879943 182 16ft 17kts
10-Jul-19 18:53 40.774447 -73.878259 31 16ft 11kts
10-Jul-19 18:54 40.777727 -73.875431 46 13ft 18kts
10-Jul-19 18:55 40.777036 -73.869899 128 12ft 8kts
10-Jul-19 18:56 40.776793 -73.870928 256 12ft 1kts
10-Jul-19 18:57 40.776298 -73.872088 235 12ft 6kts
10-Jul-19 18:58 40.776253 -73.872308 275 13ft 0kts
10-Jul-19 18:59 40.889879 -73.784462 211 2458ft 184kts
10-Jul-19 19:00 40.849360 -73.817980 210 1495ft 150kts
10-Jul-19 19:01 40.815053 -73.846235 209 708ft 145kts
10-Jul-19 19:02 40.784484 -73.871487 210 20ft 143kts
10-Jul-19 19:03 40.774165 -73.879855 194 16ft 16kts
10-Jul-19 19:04 40.788331 -73.868294 211 102ft 144kts

Navigation Log

Ident Type
Flight plan parsing failed, navigation log unavailable